Mostovskoy, Russia
Current Conditions -  °F | °C
As of 11:30 PM on Friday 31 Oct 2014 (Local Time) from URMT Reporting Station
Moderate Fog Moderate Fog  
Wind Chill: 40°   Ceiling: 200
Heat Index: 43°   Visibility: 0.18mi
Dew Point: 43°   Wind: 4mph
Humidity: 100%   Direction: 120°ESE
Pressure: 29.88"   Gusts: NA
Location:  44.41°N, 40.79°E
Report Text: URMT 312030Z 12002MPS 0300 R07/0800U FG VV002 06/06 Q1012 NOSIGRMK QBB070 OBST OBSC QFE719 SC070
Loading
Personal Weather Stations






























Interactive Weather Map
Tropical Storm Tracking
New forecast layout! Learn more

10-Day Weather Forecast

Advertisements
Track Severe Weather on mobile